Back to top

Worland, WY weather

Worland Municipal Airport, Worland, WY: 1/20/2020 03:53
Visibility10 statute milesclear sky
View 7-Day Forecast
Area Summary
Sky/CloudsSky Clear
Weather [last 24 hours]None
Pressure30.35 in.Hg (1028 hPa)
Dew Point6.1 °F (-14.4 °C)
Relative Humidity87.7 %
Temperature9 °F (-12.8 °C)blue thermometer
Wind Chill2.44 °F (-16.4 °C)
Reading TimeMinimum to Maximum Temperature
6-hr ending 1/19@22:5312.9 °F to 32 °F (-10.6 °C to 0 °C)
6-hr ending 1/19@16:5323 °F to 39.9 °F (-5 °C to 4.4 °C)
6-hr ending 1/19@10:535 °F to 24.1 °F (-15 °C to -4.4 °C)
6-hr ending 1/19@04:537 °F to 17.1 °F (-13.9 °C to -8.3 °C)
24-hr ending 1/19@23:535 °F to 39.9 °F (-15 °C to 4.4 °C)
Wind3.45 MPH (3 KT) green arrow pointing 247.5 degrees
Wind FromWest/Southwest (250 Degrees)
Twilight Begins07:07Sunshine Yesterday
Sunrise07:38N/A
Sunset17:08
Twilight Ends17:40
METARKWRL 201053Z AUTO 25003KT 10SM CLR M13/M14 A3035 RMK AO2 SLP325 T11281144
Tags: